createdAt,value
2023-04-11T00:00:10.166Z,30.20
2023-04-11T00:01:15.062Z,31.50
2023-04-11T00:02:17.638Z,33.30
2023-04-11T00:03:20.389Z,31.00
2023-04-11T00:04:24.784Z,32.20
2023-04-11T00:05:28.279Z,32.40
2023-04-11T00:06:32.566Z,29.80
2023-04-11T00:07:35.323Z,29.80
2023-04-11T00:08:37.720Z,30.30
2023-04-11T00:09:39.681Z,30.20
2023-04-11T00:10:43.218Z,34.80
2023-04-11T00:11:46.023Z,34.00
2023-04-11T00:12:48.499Z,32.90
2023-04-11T00:13:50.520Z,34.20
2023-04-11T00:14:53.298Z,32.70
2023-04-11T00:15:56.041Z,28.80
2023-04-11T00:17:00.290Z,32.70
2023-04-11T00:18:02.471Z,33.00
2023-04-11T00:19:06.452Z,29.40
2023-04-11T00:20:11.304Z,35.10
2023-04-11T00:21:13.374Z,32.00
2023-04-11T00:22:17.727Z,31.80
2023-04-11T00:23:20.359Z,28.60
2023-04-11T00:24:22.568Z,31.00
2023-04-11T00:25:25.006Z,32.40
2023-04-11T00:26:27.247Z,31.00
2023-04-11T00:27:29.580Z,31.60
2023-04-11T00:28:31.910Z,30.30
2023-04-11T00:29:35.117Z,30.20
2023-04-11T00:30:38.886Z,30.60
2023-04-11T00:31:41.293Z,29.10
2023-04-11T00:32:45.412Z,32.20
2023-04-11T00:33:47.540Z,29.80
2023-04-11T00:34:49.912Z,31.00
2023-04-11T00:35:51.934Z,30.60
2023-04-11T00:36:54.575Z,28.30
2023-04-11T00:37:58.051Z,30.70
2023-04-11T00:39:03.465Z,32.50
2023-04-11T00:40:07.137Z,29.10
2023-04-11T00:41:09.427Z,28.60
2023-04-11T00:42:12.836Z,32.60
2023-04-11T00:43:15.127Z,29.70
2023-04-11T00:44:17.451Z,29.40
2023-04-11T00:45:19.828Z,32.60
2023-04-11T00:46:22.180Z,30.00
2023-04-11T00:47:25.306Z,31.10
2023-04-11T00:48:27.962Z,34.60
2023-04-11T00:49:31.407Z,29.40
2023-04-11T00:50:35.484Z,29.40
2023-04-11T00:51:37.981Z,32.70
2023-04-11T00:52:40.714Z,32.10
2023-04-11T00:53:45.121Z,34.82
2023-04-11T00:54:48.060Z,34.70
2023-04-11T00:55:50.901Z,32.10
2023-04-11T00:56:53.402Z,32.90
2023-04-11T00:57:56.117Z,34.40
2023-04-11T00:58:59.186Z,34.27
2023-04-11T01:00:03.418Z,31.80
2023-04-11T01:01:08.509Z,33.50
2023-04-11T01:02:11.396Z,32.70
2023-04-11T01:03:13.844Z,31.20
2023-04-11T01:04:16.982Z,29.30
2023-04-11T01:05:19.504Z,28.90
2023-04-11T01:06:23.807Z,37.20
2023-04-11T01:07:26.157Z,31.10
2023-04-11T01:08:28.662Z,34.80
2023-04-11T01:09:32.904Z,32.80
2023-04-11T01:10:36.217Z,34.10
2023-04-11T01:11:39.226Z,33.60
2023-04-11T01:12:43.557Z,38.70
2023-04-11T01:13:46.533Z,36.00
2023-04-11T01:14:48.951Z,42.30
2023-04-11T01:15:51.379Z,39.80
2023-04-11T01:16:55.859Z,36.60
2023-04-11T01:18:00.168Z,36.80
2023-04-11T01:19:03.757Z,34.10
2023-04-11T01:20:08.247Z,16.80
2023-04-11T01:21:11.516Z,34.90
2023-04-11T01:22:17.491Z,37.80
2023-04-11T01:23:27.050Z,35.90
2023-04-11T01:24:30.073Z,34.70
2023-04-11T01:25:32.449Z,40.27
2023-04-11T01:26:35.197Z,36.80
2023-04-11T01:27:37.885Z,36.40
2023-04-11T01:28:40.100Z,35.40
2023-04-11T01:29:43.152Z,37.90
2023-04-11T01:30:46.032Z,39.90
2023-04-11T01:31:51.967Z,36.90
2023-04-11T01:32:54.588Z,33.90
2023-04-11T01:34:01.346Z,37.00
2023-04-11T01:35:05.081Z,37.50
2023-04-11T01:36:08.750Z,41.20
2023-04-11T01:37:11.106Z,43.60
2023-04-11T01:38:13.210Z,38.90
2023-04-11T01:39:15.444Z,40.20
2023-04-11T01:40:18.924Z,38.70
2023-04-11T01:41:23.176Z,35.70
2023-04-11T01:42:27.220Z,36.50
2023-04-11T01:43:29.728Z,36.70
2023-04-11T01:44:32.972Z,39.70
2023-04-11T01:45:37.922Z,44.30
2023-04-11T01:46:40.908Z,39.10
2023-04-11T01:47:43.395Z,38.40
2023-04-11T01:48:48.926Z,36.10
2023-04-11T01:49:53.160Z,35.80
2023-04-11T01:50:56.058Z,33.70
2023-04-11T01:51:58.248Z,35.82
2023-04-11T01:53:01.484Z,37.70
2023-04-11T01:54:05.538Z,37.60
2023-04-11T01:55:08.297Z,36.55
2023-04-11T01:56:12.545Z,38.40
2023-04-11T01:57:14.800Z,39.10
2023-04-11T01:58:16.905Z,42.50
2023-04-11T01:59:18.932Z,34.60
2023-04-11T02:00:21.839Z,35.30
2023-04-11T02:01:24.380Z,38.50
2023-04-11T02:02:26.731Z,33.40
2023-04-11T02:03:28.939Z,44.70
2023-04-11T02:04:32.515Z,49.90
2023-04-11T02:05:35.078Z,41.60
2023-04-11T02:06:38.053Z,42.45
2023-04-11T02:07:40.570Z,42.20
2023-04-11T02:08:43.841Z,42.40
2023-04-11T02:09:47.077Z,41.20
2023-04-11T02:10:49.815Z,33.70
2023-04-11T02:11:52.073Z,39.30
2023-04-11T02:12:54.230Z,43.00
2023-04-11T02:13:56.252Z,39.10
2023-04-11T02:14:58.389Z,42.20
2023-04-11T02:16:11.256Z,47.80
2023-04-11T02:17:13.896Z,44.40
2023-04-11T02:18:16.136Z,43.50
2023-04-11T02:19:20.500Z,39.20
2023-04-11T02:20:23.438Z,41.20
2023-04-11T02:21:26.257Z,38.90
2023-04-11T02:22:28.189Z,43.00
2023-04-11T02:23:30.147Z,45.11
2023-04-11T02:24:32.394Z,43.20
2023-04-11T02:25:34.812Z,40.50
2023-04-11T02:26:37.427Z,42.10
2023-04-11T02:27:40.006Z,37.30
2023-04-11T02:28:42.225Z,47.30
2023-04-11T02:29:44.443Z,39.30
2023-04-11T02:30:46.652Z,37.40
2023-04-11T02:31:49.345Z,39.30
2023-04-11T02:32:52.939Z,39.80
2023-04-11T02:33:55.542Z,39.90
2023-04-11T02:34:57.572Z,37.10
2023-04-11T02:36:00.180Z,38.20
2023-04-11T02:37:03.436Z,40.64
2023-04-11T02:38:05.634Z,46.70
2023-04-11T02:39:07.641Z,44.10
2023-04-11T02:40:10.777Z,43.90
2023-04-11T02:41:13.447Z,33.40
2023-04-11T02:42:15.312Z,39.44
2023-04-11T02:43:17.289Z,38.44
2023-04-11T02:44:19.872Z,48.70
2023-04-11T02:45:22.714Z,39.30
2023-04-11T02:46:25.331Z,40.18
2023-04-11T02:47:27.709Z,39.00
2023-04-11T02:48:32.695Z,41.70
2023-04-11T02:49:34.760Z,42.90
2023-04-11T02:50:41.366Z,29.60
2023-04-11T02:51:43.937Z,35.20
2023-04-11T02:52:48.692Z,42.30
2023-04-11T02:53:53.816Z,37.70
2023-04-11T02:54:56.338Z,38.50
2023-04-11T02:55:58.320Z,39.10
2023-04-11T02:57:01.600Z,42.10
2023-04-11T02:58:03.686Z,37.30
2023-04-11T02:59:07.126Z,42.30
2023-04-11T03:00:11.807Z,36.20
2023-04-11T03:01:20.885Z,44.10
2023-04-11T03:02:23.379Z,40.30
2023-04-11T03:03:25.669Z,42.00
2023-04-11T03:04:28.886Z,41.50
2023-04-11T03:05:32.975Z,40.40
2023-04-11T03:06:35.565Z,42.50
2023-04-11T03:07:40.363Z,41.45
2023-04-11T03:08:43.907Z,40.00
2023-04-11T03:09:46.400Z,34.10
2023-04-11T03:10:48.394Z,42.30
2023-04-11T03:11:52.837Z,41.89
2023-04-11T03:12:55.284Z,36.50
2023-04-11T03:13:57.804Z,44.64
2023-04-11T03:14:59.938Z,40.80
2023-04-11T03:16:03.557Z,44.18
2023-04-11T03:17:06.922Z,39.30
2023-04-11T03:18:09.057Z,41.10
2023-04-11T03:19:13.366Z,37.30
2023-04-11T03:20:17.919Z,39.91
2023-04-11T03:21:20.596Z,45.10
2023-04-11T03:22:24.288Z,43.50
2023-04-11T03:23:26.614Z,39.00
2023-04-11T03:24:29.458Z,41.90
2023-04-11T03:25:31.780Z,34.80
2023-04-11T03:26:35.945Z,39.50
2023-04-11T03:27:40.859Z,33.50
2023-04-11T03:28:43.112Z,41.40
2023-04-11T03:29:45.315Z,46.10
2023-04-11T03:30:49.967Z,31.10
2023-04-11T03:31:54.040Z,42.00
2023-04-11T03:32:58.931Z,41.40
2023-04-11T03:34:02.085Z,38.60
2023-04-11T03:35:05.285Z,34.20
2023-04-11T03:36:08.949Z,35.70
2023-04-11T03:37:11.427Z,45.30
2023-04-11T03:38:14.366Z,43.80
2023-04-11T03:39:16.848Z,35.90
2023-04-11T03:40:19.514Z,31.10
2023-04-11T03:41:26.262Z,42.20
2023-04-11T03:42:29.063Z,45.90
2023-04-11T03:43:33.537Z,41.00
2023-04-11T03:44:36.033Z,38.20
2023-04-11T03:45:38.033Z,43.30
2023-04-11T03:46:42.199Z,42.10
2023-04-11T03:47:45.656Z,36.80
2023-04-11T03:48:49.418Z,38.20
2023-04-11T03:49:52.890Z,40.18
2023-04-11T03:50:55.854Z,42.60
2023-04-11T03:52:00.258Z,41.70
2023-04-11T03:53:03.633Z,36.70
2023-04-11T03:54:05.942Z,41.50
2023-04-11T03:55:10.542Z,43.50
2023-04-11T03:56:14.392Z,40.80
2023-04-11T03:57:16.487Z,36.70
2023-04-11T03:58:20.927Z,38.10
2023-04-11T03:59:23.557Z,44.00
2023-04-11T04:00:30.640Z,42.10
2023-04-11T04:01:37.834Z,41.40
2023-04-11T04:02:40.412Z,43.27
2023-04-11T04:03:43.586Z,42.90
2023-04-11T04:04:51.842Z,41.80
2023-04-11T04:05:56.245Z,43.60
2023-04-11T04:06:58.901Z,41.45
2023-04-11T04:08:04.225Z,41.10
2023-04-11T04:09:09.284Z,39.00
2023-04-11T04:10:19.609Z,39.70
2023-04-11T04:11:23.664Z,39.50
2023-04-11T04:12:27.838Z,42.90
2023-04-11T04:13:32.121Z,40.20
2023-04-11T04:14:38.864Z,44.50
2023-04-11T04:15:41.902Z,39.30
2023-04-11T04:16:44.821Z,41.20
2023-04-11T04:17:49.141Z,34.10
2023-04-11T04:18:53.386Z,40.90
2023-04-11T04:19:56.585Z,41.73
2023-04-11T04:20:59.357Z,46.91
2023-04-11T04:22:03.386Z,40.80
2023-04-11T04:23:07.340Z,39.30
2023-04-11T04:24:11.771Z,41.70
2023-04-11T04:25:27.565Z,44.10
2023-04-11T04:26:31.990Z,41.20
2023-04-11T04:27:36.766Z,44.00
2023-04-11T04:28:40.333Z,39.10
2023-04-11T04:29:47.316Z,38.70
2023-04-11T04:30:54.352Z,37.10
2023-04-11T04:31:59.391Z,33.50
2023-04-11T04:33:04.059Z,37.10
2023-04-11T04:34:10.608Z,39.82
2023-04-11T04:35:16.003Z,33.60
2023-04-11T04:36:18.519Z,39.10
2023-04-11T04:37:24.373Z,36.30
2023-04-11T04:38:29.149Z,38.30
2023-04-11T04:39:33.469Z,37.70
2023-04-11T04:40:38.424Z,39.30
2023-04-11T04:41:41.157Z,38.30
2023-04-11T04:42:44.212Z,38.20
2023-04-11T04:43:48.269Z,38.30
2023-04-11T04:45:05.532Z,39.00
2023-04-11T04:46:10.319Z,44.30
2023-04-11T04:47:23.530Z,47.70
2023-04-11T04:48:26.096Z,45.80
2023-04-11T04:49:28.955Z,43.20
2023-04-11T04:50:31.303Z,42.90
2023-04-11T04:51:33.426Z,39.60
2023-04-11T04:52:36.197Z,40.40
2023-04-11T04:53:39.102Z,35.90
2023-04-11T04:54:43.113Z,42.80
2023-04-11T04:55:45.816Z,36.00
2023-04-11T04:56:48.685Z,41.36
2023-04-11T04:57:51.425Z,44.18
2023-04-11T04:58:54.282Z,40.20
2023-04-11T04:59:57.583Z,36.55
2023-04-11T05:01:02.328Z,41.60
2023-04-11T05:02:05.659Z,43.20
2023-04-11T05:03:08.365Z,39.90
2023-04-11T05:04:11.404Z,36.00
2023-04-11T05:05:18.789Z,41.00
2023-04-11T05:06:22.065Z,51.60
2023-04-11T05:07:25.935Z,42.80
2023-04-11T05:08:28.264Z,44.50
2023-04-11T05:09:32.413Z,40.10
2023-04-11T05:10:39.371Z,45.80
2023-04-11T05:11:41.798Z,40.10
2023-04-11T05:12:44.132Z,34.50
2023-04-11T05:13:47.348Z,48.10
2023-04-11T05:14:52.489Z,47.30
2023-04-11T05:15:54.760Z,42.40
2023-04-11T05:16:59.093Z,42.70
2023-04-11T05:19:14.998Z,39.40
2023-04-11T05:20:19.419Z,33.30
2023-04-11T05:21:22.649Z,40.45
2023-04-11T05:22:26.670Z,41.90
2023-04-11T05:23:30.647Z,41.40
2023-04-11T05:24:34.705Z,43.60
2023-04-11T05:25:37.157Z,38.60
2023-04-11T05:26:40.294Z,43.18
2023-04-11T05:27:42.800Z,39.70
2023-04-11T05:28:45.159Z,38.00
2023-04-11T05:29:49.051Z,40.40
2023-04-11T05:30:52.099Z,42.00
2023-04-11T05:31:55.201Z,29.00
2023-04-11T05:32:57.971Z,36.70
2023-04-11T05:34:00.891Z,40.10
2023-04-11T05:35:03.652Z,41.50
2023-04-11T05:36:14.824Z,42.60
2023-04-11T05:37:17.055Z,43.20
2023-04-11T05:38:20.576Z,47.70
2023-04-11T05:39:22.876Z,36.50
2023-04-11T05:40:25.617Z,34.60
2023-04-11T05:41:28.198Z,32.80
2023-04-11T05:42:30.793Z,33.10
2023-04-11T05:43:35.791Z,36.70
2023-04-11T05:44:39.549Z,35.10
2023-04-11T05:45:44.382Z,31.60
2023-04-11T05:46:47.224Z,32.40
2023-04-11T05:47:50.062Z,38.27
2023-04-11T05:48:53.265Z,32.70
2023-04-11T05:49:55.361Z,31.40
2023-04-11T05:50:59.749Z,33.40
2023-04-11T05:52:02.082Z,34.70
2023-04-11T05:53:04.905Z,32.10
2023-04-11T05:54:07.188Z,34.27
2023-04-11T05:55:10.431Z,33.67
2023-04-11T05:56:13.113Z,31.60
2023-04-11T05:57:16.964Z,38.00
2023-04-11T05:58:19.475Z,30.70
2023-04-11T05:59:26.998Z,29.90
2023-04-11T06:00:31.438Z,33.00
2023-04-11T06:01:34.389Z,26.20
2023-04-11T06:02:36.756Z,25.36
2023-04-11T06:03:39.285Z,32.10
2023-04-11T06:04:41.832Z,27.90
2023-04-11T06:05:44.193Z,29.70
2023-04-11T06:06:48.232Z,28.73
2023-04-11T06:07:51.279Z,27.50
2023-04-11T06:08:54.751Z,28.09
2023-04-11T06:09:58.184Z,24.30
2023-04-11T06:11:00.796Z,25.60
2023-04-11T06:12:03.436Z,25.50
2023-04-11T06:13:06.825Z,28.60
2023-04-11T06:14:09.202Z,25.00
2023-04-11T06:15:13.741Z,25.00
2023-04-11T06:16:16.754Z,23.90
2023-04-11T06:17:19.142Z,25.40
2023-04-11T06:18:21.493Z,21.30
2023-04-11T06:19:23.763Z,23.20
2023-04-11T06:20:26.579Z,22.60
2023-04-11T06:21:31.355Z,23.80
2023-04-11T06:22:33.823Z,19.20
2023-04-11T06:23:35.745Z,20.90
2023-04-11T06:24:39.384Z,20.90
2023-04-11T06:25:41.659Z,21.10
2023-04-11T06:26:44.577Z,20.10
2023-04-11T06:27:48.185Z,24.82
2023-04-11T06:28:50.822Z,19.00
2023-04-11T06:29:53.014Z,23.00
2023-04-11T06:30:55.166Z,20.40
2023-04-11T06:31:59.729Z,21.90
2023-04-11T06:33:01.905Z,23.50
2023-04-11T06:34:04.114Z,21.50
2023-04-11T06:35:07.057Z,19.70
2023-04-11T06:36:11.058Z,23.30
2023-04-11T06:37:15.405Z,18.80
2023-04-11T06:38:17.507Z,21.40
2023-04-11T06:39:21.398Z,25.90
2023-04-11T06:40:23.939Z,21.70
2023-04-11T06:41:26.068Z,20.50
2023-04-11T06:42:28.476Z,20.60
2023-04-11T06:43:31.536Z,23.70
2023-04-11T06:44:34.705Z,24.50
2023-04-11T06:45:36.872Z,23.90
2023-04-11T06:46:39.014Z,16.00
2023-04-11T06:47:41.194Z,20.60
2023-04-11T06:48:43.467Z,10.00
2023-04-11T06:49:45.461Z,19.90
2023-04-11T06:50:49.317Z,17.78
2023-04-11T06:51:51.774Z,18.40
2023-04-11T06:52:53.774Z,22.50
2023-04-11T06:53:56.430Z,16.33
2023-04-11T06:54:59.223Z,20.00
2023-04-11T06:56:03.725Z,18.80
2023-04-11T06:57:08.313Z,18.00
2023-04-11T06:58:10.466Z,18.20
2023-04-11T06:59:13.481Z,19.30
2023-04-11T07:00:16.438Z,21.30
2023-04-11T07:01:20.027Z,19.45
2023-04-11T07:02:24.397Z,19.70
2023-04-11T07:03:26.948Z,18.70
2023-04-11T07:04:29.320Z,20.20
2023-04-11T07:05:33.708Z,18.70
2023-04-11T07:06:35.997Z,20.00
2023-04-11T07:07:39.176Z,20.40
2023-04-11T07:09:53.067Z,16.20
2023-04-11T07:10:55.052Z,21.10
2023-04-11T07:11:57.042Z,22.44
2023-04-11T07:13:02.440Z,24.11
2023-04-11T07:14:05.437Z,23.50
2023-04-11T07:15:10.455Z,20.80
2023-04-11T07:16:13.054Z,29.10
2023-04-11T07:17:15.790Z,22.10
2023-04-11T07:18:18.489Z,15.50
2023-04-11T07:19:20.598Z,13.00
2023-04-11T07:20:23.153Z,25.00
2023-04-11T07:21:29.095Z,21.70
2023-04-11T07:22:31.214Z,20.60
2023-04-11T07:23:33.052Z,25.00
2023-04-11T07:24:34.928Z,14.00
2023-04-11T07:25:39.044Z,19.33
2023-04-11T07:26:41.812Z,24.90
2023-04-11T07:27:45.685Z,25.10
2023-04-11T07:28:47.814Z,22.50
2023-04-11T07:29:50.515Z,22.20
2023-04-11T07:30:52.897Z,16.27
2023-04-11T07:31:55.446Z,17.30
2023-04-11T07:32:58.184Z,29.70
2023-04-11T07:34:00.181Z,22.70
2023-04-11T07:35:03.099Z,23.00
2023-04-11T07:36:07.560Z,15.09
2023-04-11T07:37:10.564Z,23.80
2023-04-11T07:38:13.941Z,20.91
2023-04-11T07:39:16.403Z,21.70
2023-04-11T07:40:18.650Z,17.10
2023-04-11T07:41:20.793Z,23.89
2023-04-11T07:42:22.818Z,15.00
2023-04-11T07:43:29.710Z,23.70
2023-04-11T07:44:32.254Z,23.90
2023-04-11T07:45:35.852Z,26.10
2023-04-11T07:46:38.674Z,23.20
2023-04-11T07:47:40.757Z,24.00
2023-04-11T07:48:43.050Z,23.10
2023-04-11T07:49:45.149Z,14.80
2023-04-11T07:50:48.272Z,21.78
2023-04-11T07:51:50.895Z,25.30
2023-04-11T07:52:53.114Z,21.00
2023-04-11T07:53:55.501Z,17.50
2023-04-11T07:54:58.943Z,19.40
2023-04-11T07:56:02.073Z,21.50
2023-04-11T07:57:04.791Z,17.45
2023-04-11T07:58:07.491Z,20.10
2023-04-11T07:59:11.487Z,23.10
2023-04-11T08:00:20.582Z,30.50
2023-04-11T08:01:24.432Z,15.30
2023-04-11T08:02:26.859Z,16.40
2023-04-11T08:03:29.580Z,24.90
2023-04-11T08:04:34.704Z,17.90
2023-04-11T08:05:37.158Z,19.60
2023-04-11T08:06:39.662Z,19.70
2023-04-11T08:07:41.894Z,16.50
2023-04-11T08:08:45.523Z,21.90
2023-04-11T08:09:47.742Z,23.10
2023-04-11T08:10:51.999Z,19.30
2023-04-11T08:11:56.143Z,19.70
2023-04-11T08:12:58.550Z,18.70
2023-04-11T08:14:00.681Z,21.10
2023-04-11T08:15:04.335Z,18.20
2023-04-11T08:16:09.694Z,17.10
2023-04-11T08:17:25.096Z,18.30
2023-04-11T08:18:20.178Z,20.40
2023-04-11T08:19:22.503Z,17.40
2023-04-11T08:20:25.866Z,16.30
2023-04-11T08:21:28.003Z,19.10
2023-04-11T08:22:32.957Z,18.80
2023-04-11T08:23:36.623Z,16.70
2023-04-11T08:24:38.770Z,20.10
2023-04-11T08:25:42.036Z,13.40
2023-04-11T08:26:45.130Z,19.30
2023-04-11T08:27:47.661Z,13.70
2023-04-11T08:28:49.790Z,16.50
2023-04-11T08:29:51.705Z,15.60
2023-04-11T08:30:55.825Z,20.90
2023-04-11T08:31:57.893Z,18.10
2023-04-11T08:33:00.230Z,19.00
2023-04-11T08:34:05.367Z,23.10
2023-04-11T08:35:08.055Z,8.30
2023-04-11T08:36:11.684Z,20.80
2023-04-11T08:37:13.810Z,17.40
2023-04-11T08:38:16.508Z,22.80
2023-04-11T08:39:18.794Z,18.90
2023-04-11T08:40:21.630Z,18.90
2023-04-11T08:41:23.539Z,14.80
2023-04-11T08:42:30.182Z,18.89
2023-04-11T08:43:38.311Z,17.50
2023-04-11T08:44:40.469Z,15.80
2023-04-11T08:58:35.953Z,20.30
2023-04-11T08:59:50.691Z,14.60
2023-04-11T09:01:02.737Z,15.30
2023-04-11T09:02:10.002Z,10.00
2023-04-11T09:03:15.047Z,17.10
2023-04-11T09:04:17.340Z,11.70
2023-04-11T09:05:28.391Z,15.40
2023-04-11T09:06:31.862Z,12.90
2023-04-11T09:07:40.935Z,15.90
2023-04-11T09:08:43.205Z,15.00
2023-04-11T09:09:45.708Z,12.20
2023-04-11T09:10:48.680Z,14.10
2023-04-11T09:11:53.000Z,12.00
2023-04-11T09:12:56.557Z,10.30
2023-04-11T09:14:08.865Z,11.50
2023-04-11T09:15:19.310Z,13.00
2023-04-11T09:16:21.622Z,13.40
2023-04-11T09:17:24.365Z,16.00
2023-04-11T09:18:35.445Z,15.09
2023-04-11T09:19:38.307Z,13.80
2023-04-11T09:20:41.257Z,10.18
2023-04-11T09:21:51.032Z,15.20
2023-04-11T09:22:54.327Z,13.20
2023-04-11T09:24:16.730Z,11.10
2023-04-11T09:25:20.948Z,15.20
2023-04-11T09:26:30.059Z,10.10
2023-04-11T09:27:32.142Z,11.60
2023-04-11T09:28:48.018Z,14.70
2023-04-11T09:29:50.366Z,13.10
2023-04-11T09:30:57.214Z,12.64
2023-04-11T09:31:59.651Z,11.10
2023-04-11T09:33:23.841Z,7.40
2023-04-11T09:34:27.814Z,11.90
2023-04-11T09:35:30.107Z,12.50
2023-04-11T09:36:32.393Z,13.50
2023-04-11T09:37:47.301Z,7.80
2023-04-11T09:38:50.805Z,11.30
2023-04-11T09:39:59.423Z,11.60
2023-04-11T09:41:03.585Z,12.00
2023-04-11T09:42:25.782Z,8.00
2023-04-11T09:43:31.293Z,10.90
2023-04-11T09:44:38.522Z,11.60
2023-04-11T09:45:51.674Z,12.10
2023-04-11T09:46:59.382Z,12.50
2023-04-11T09:48:01.765Z,11.50
2023-04-11T09:49:04.610Z,14.50
2023-04-11T09:50:08.395Z,13.10
2023-04-11T09:51:11.501Z,12.60
2023-04-11T09:52:15.928Z,12.90
2023-04-11T09:53:18.853Z,10.90
2023-04-11T09:54:21.926Z,9.91
2023-04-11T09:55:25.423Z,9.73
2023-04-11T09:56:31.430Z,10.80
2023-04-11T09:57:34.440Z,9.70
2023-04-11T09:58:38.934Z,9.60
2023-04-11T09:59:42.412Z,9.80
2023-04-11T10:00:47.896Z,9.70
2023-04-11T10:01:51.304Z,14.00
2023-04-11T10:02:54.450Z,9.60
2023-04-11T10:03:58.333Z,12.00
2023-04-11T10:05:03.331Z,10.60
2023-04-11T10:06:09.706Z,9.40
2023-04-11T10:07:16.337Z,10.70
2023-04-11T10:08:32.200Z,12.30
2023-04-11T10:09:42.975Z,12.40
2023-04-11T10:10:46.036Z,10.00
2023-04-11T10:11:48.648Z,11.70
2023-04-11T10:12:51.200Z,13.20
2023-04-11T10:13:53.521Z,10.40
2023-04-11T10:14:56.442Z,10.10
2023-04-11T10:16:10.860Z,10.00
2023-04-11T10:17:22.137Z,10.80
2023-04-11T10:18:22.861Z,13.30
2023-04-11T10:19:27.987Z,11.60
2023-04-11T10:20:37.356Z,12.90
2023-04-11T10:21:41.846Z,13.20
2023-04-11T10:22:53.641Z,10.30
2023-04-11T10:24:20.846Z,11.20
2023-04-11T10:25:24.286Z,11.20
2023-04-11T10:26:47.692Z,13.00
2023-04-11T10:28:00.936Z,9.20
2023-04-11T10:29:08.384Z,10.50
2023-04-11T10:30:12.455Z,7.50
2023-04-11T10:31:16.906Z,15.10
2023-04-11T10:32:22.180Z,13.50
2023-04-11T10:33:26.512Z,11.60
2023-04-11T10:34:28.945Z,11.40
2023-04-11T10:35:31.617Z,9.50
2023-04-11T10:38:06.896Z,8.20
2023-04-11T10:39:09.317Z,8.60
2023-04-11T10:40:12.919Z,9.40
2023-04-11T10:41:28.018Z,9.09
2023-04-11T10:42:45.079Z,8.90
2023-04-11T10:43:47.884Z,7.90
2023-04-11T10:45:10.734Z,8.30
2023-04-11T10:46:24.586Z,7.60
2023-04-11T10:47:28.354Z,7.70
2023-04-11T10:48:30.927Z,8.30
2023-04-11T10:49:38.610Z,10.60
2023-04-11T10:50:43.891Z,10.40
2023-04-11T10:51:46.538Z,8.90
2023-04-11T10:52:49.141Z,8.40
2023-04-11T10:53:52.500Z,7.90
2023-04-11T10:54:55.433Z,9.80
2023-04-11T10:55:58.392Z,8.40
2023-04-11T10:57:01.597Z,8.40
2023-04-11T10:58:07.113Z,11.30
2023-04-11T10:59:34.589Z,9.30
2023-04-11T11:00:53.583Z,8.00
2023-04-11T11:01:57.035Z,8.50
2023-04-11T11:03:01.146Z,8.80
2023-04-11T11:04:04.436Z,5.60
2023-04-11T11:05:18.589Z,8.60
2023-04-11T11:06:22.179Z,28.30
2023-04-11T11:07:24.743Z,12.00
2023-04-11T11:08:44.241Z,8.20
2023-04-11T11:10:13.301Z,11.00
2023-04-11T11:11:16.808Z,8.90
2023-04-11T11:12:22.156Z,10.50
2023-04-11T11:13:47.262Z,9.60
2023-04-11T11:14:54.758Z,9.80
2023-04-11T11:15:58.008Z,9.50
2023-04-11T11:17:00.699Z,9.40
2023-04-11T11:18:07.974Z,9.00
2023-04-11T11:19:13.490Z,12.10
2023-04-11T11:20:20.156Z,11.10
2023-04-11T11:21:28.096Z,10.50
2023-04-11T11:22:31.514Z,10.50
2023-04-11T11:23:38.909Z,11.30
2023-04-11T11:24:41.339Z,11.30
2023-04-11T11:25:47.143Z,10.90
2023-04-11T11:26:49.930Z,10.90
2023-04-11T11:28:00.870Z,13.10
2023-04-11T11:29:05.044Z,11.10
2023-04-11T11:30:17.952Z,14.00
2023-04-11T11:31:22.109Z,13.10
2023-04-11T11:32:31.640Z,12.10
2023-04-11T11:33:37.568Z,8.50
2023-04-11T11:34:40.976Z,8.40
2023-04-11T11:35:47.063Z,11.10
2023-04-11T11:36:51.057Z,14.10
2023-04-11T11:37:54.426Z,12.40
2023-04-11T11:38:58.935Z,9.40
2023-04-11T11:40:03.861Z,10.10
2023-04-11T11:41:06.710Z,7.60
2023-04-11T11:42:09.096Z,11.64
2023-04-11T11:43:11.388Z,10.20
2023-04-11T11:44:24.899Z,11.40
2023-04-11T11:45:27.981Z,8.30
2023-04-11T11:46:33.313Z,11.30
2023-04-11T11:47:43.248Z,10.30
2023-04-11T11:49:00.318Z,8.80
2023-04-11T11:50:03.273Z,5.80
2023-04-11T11:51:06.560Z,8.00
2023-04-11T11:52:10.228Z,7.40
2023-04-11T11:53:15.141Z,7.80
2023-04-11T11:54:17.317Z,12.30
2023-04-11T11:55:24.289Z,11.30
2023-04-11T11:56:28.451Z,9.80
2023-04-11T11:57:31.858Z,10.60
2023-04-11T11:58:37.703Z,13.00
2023-04-11T11:59:40.841Z,15.00
2023-04-11T12:00:45.402Z,17.30
2023-04-11T12:01:48.017Z,6.80
2023-04-11T12:02:55.823Z,14.30
2023-04-11T12:03:58.825Z,10.50
2023-04-11T12:05:07.501Z,7.10
2023-04-11T12:06:10.879Z,9.50
2023-04-11T12:07:13.261Z,6.91
2023-04-11T12:08:15.922Z,10.80
2023-04-11T12:09:18.198Z,8.00
2023-04-11T12:10:21.168Z,10.40
2023-04-11T12:11:24.651Z,10.90
2023-04-11T12:12:42.090Z,9.50
2023-04-11T12:13:46.074Z,13.90
2023-04-11T12:14:53.382Z,10.80
2023-04-11T12:15:57.548Z,11.30
2023-04-11T12:17:00.207Z,8.00
2023-04-11T12:18:06.375Z,8.60
2023-04-11T12:19:08.821Z,13.20
2023-04-11T12:20:11.801Z,10.60
2023-04-11T12:21:14.360Z,10.55
2023-04-11T12:22:18.560Z,11.20
2023-04-11T12:23:22.024Z,10.80
2023-04-11T12:24:24.359Z,11.10
2023-04-11T12:25:28.198Z,12.20
2023-04-11T12:26:30.712Z,10.60
2023-04-11T12:27:34.763Z,9.00
2023-04-11T12:28:37.016Z,12.60
2023-04-11T12:29:39.707Z,13.10
2023-04-11T12:30:41.976Z,12.70
2023-04-11T12:31:45.972Z,5.80
2023-04-11T12:32:48.562Z,13.80
2023-04-11T12:33:50.775Z,12.00
2023-04-11T12:34:53.829Z,13.30
2023-04-11T12:35:56.511Z,11.90
2023-04-11T12:37:01.610Z,9.36
2023-04-11T12:38:03.783Z,12.60
2023-04-11T12:39:07.121Z,9.50
2023-04-11T12:40:14.756Z,10.80
2023-04-11T12:42:26.645Z,11.60
2023-04-11T12:43:27.818Z,14.70
2023-04-11T12:44:30.222Z,9.00
2023-04-11T12:45:32.682Z,10.50
2023-04-11T12:46:36.269Z,9.50
2023-04-11T12:47:39.104Z,9.50
2023-04-11T12:48:41.487Z,14.27
2023-04-11T12:49:44.545Z,13.20
2023-04-11T12:50:48.696Z,15.00
2023-04-11T12:51:51.883Z,11.40
2023-04-11T12:52:55.690Z,10.50
2023-04-11T12:53:59.867Z,8.90
2023-04-11T12:55:04.637Z,8.90
2023-04-11T12:56:08.300Z,9.70
2023-04-11T12:57:13.861Z,12.30
2023-04-11T12:58:16.950Z,11.80
2023-04-11T12:59:20.312Z,9.40
2023-04-11T13:00:22.861Z,7.40
2023-04-11T13:01:25.864Z,7.20
2023-04-11T13:02:31.234Z,9.64
2023-04-11T13:03:34.148Z,8.00
2023-04-11T13:05:50.649Z,9.10
2023-04-11T13:06:53.129Z,15.40
2023-04-11T13:07:55.801Z,11.00
2023-04-11T13:08:58.879Z,8.18
2023-04-11T13:10:03.587Z,8.50
2023-04-11T13:11:06.633Z,13.10
2023-04-11T13:12:09.054Z,9.30
2023-04-11T13:14:16.405Z,9.80
2023-04-11T13:15:18.779Z,12.70
2023-04-11T13:16:21.303Z,7.60
2023-04-11T13:17:23.673Z,11.00
2023-04-11T13:18:26.329Z,11.10
2023-04-11T13:19:30.165Z,9.30
2023-04-11T13:20:33.897Z,8.80
2023-04-11T13:21:36.826Z,11.60
2023-04-11T13:22:44.641Z,13.36
2023-04-11T13:23:55.553Z,13.70
2023-04-11T13:24:58.588Z,8.50
2023-04-11T13:26:01.815Z,10.20
2023-04-11T13:27:03.999Z,8.90
2023-04-11T13:28:07.205Z,10.80
2023-04-11T13:29:10.200Z,10.30
2023-04-11T13:30:13.481Z,9.60
2023-04-11T13:31:16.605Z,9.30
2023-04-11T13:32:19.097Z,11.10
2023-04-11T13:33:22.246Z,12.50
2023-04-11T13:34:24.469Z,10.30
2023-04-11T13:35:27.346Z,11.10
2023-04-11T13:36:31.727Z,11.80
2023-04-11T13:37:35.242Z,9.60
2023-04-11T13:38:38.864Z,8.00
2023-04-11T13:39:41.751Z,9.50
2023-04-11T13:40:44.122Z,11.18
2023-04-11T13:41:46.079Z,10.50
2023-04-11T13:42:49.615Z,10.90
2023-04-11T13:43:52.672Z,9.60
2023-04-11T13:44:55.440Z,12.18
2023-04-11T13:45:57.771Z,13.45
2023-04-11T13:47:02.211Z,11.80
2023-04-11T13:48:05.380Z,8.20
2023-04-11T13:49:08.950Z,7.45
2023-04-11T13:50:13.821Z,9.30
2023-04-11T13:51:16.506Z,10.00
2023-04-11T13:52:18.694Z,11.20
2023-04-11T13:53:29.958Z,9.70
2023-04-11T13:54:40.046Z,11.00
2023-04-11T13:55:48.092Z,10.40
2023-04-11T13:56:51.310Z,10.10
2023-04-11T13:57:57.278Z,10.70
2023-04-11T13:58:59.940Z,11.70
2023-04-11T14:00:04.096Z,12.30
2023-04-11T14:01:07.703Z,10.60
2023-04-11T14:02:10.557Z,11.70
2023-04-11T14:03:14.917Z,11.00
2023-04-11T14:04:17.412Z,7.80
2023-04-11T14:05:20.119Z,8.20
2023-04-11T14:06:23.783Z,9.00
2023-04-11T14:07:26.205Z,9.40
2023-04-11T14:09:40.829Z,13.10
2023-04-11T14:10:44.034Z,9.20
2023-04-11T14:11:47.062Z,10.00